Flight Track Log - Related Links

Times and Time Zones

All times are in EDT time to prevent confusion due to time zone crossing. See the SWA558 flight status page for this flight to view local times or setup timezone preferences in your user account.

Time Position Orientation Groundspeed Altitude Reporting Facility
EDT Latitude Longitude Course Direction KTS MPH feet Rate Location/Type
Thu 08:34:11 AM 34.7156 -92.2494 257° West 165 190 800  Level Memphis Center
Thu 08:35:36 AM 34.6975 -92.3425 257° West 249 287 3,400 2,316 Climbing Memphis Center
Thu 08:37:02 AM 34.7017 -92.4614 272° West 284 327 7,400 2,959 Climbing Memphis Center
Thu 08:38:02 AM 34.7106 -92.5575 276° West 284 327 10,600 2,550 Climbing Memphis Center
Thu 08:39:02 AM 34.7272 -92.6692 280° West 310 357 12,500 2,200 Climbing Memphis Center
Thu 08:40:02 AM 34.7458 -92.7911 281° West 348 400 15,000 2,600 Climbing Memphis Center
Thu 08:41:02 AM 34.7661 -92.9206 281° West 374 430 17,700 2,600 Climbing Memphis Center
Thu 08:42:02 AM 34.7844 -93.0500 280° West 387 445 20,200 2,350 Climbing Memphis Center
Thu 08:43:02 AM 34.8042 -93.1897 280° West 401 461 22,400 2,000 Climbing Memphis Center
Thu 08:44:02 AM 34.8239 -93.3244 280° West 413 475 24,200 1,800 Climbing Memphis Center
Thu 08:45:02 AM 34.8436 -93.4669 280° West 419 482 26,000 1,850 Climbing Memphis Center
Thu 08:46:02 AM 34.8628 -93.6094 279° West 429 494 27,900 1,600 Climbing Memphis Center
Thu 08:47:02 AM 34.8858 -93.7594 281° West 434 499 29,200 1,400 Climbing Memphis Center
Thu 08:48:02 AM 34.9069 -93.9072 280° West 441 507 30,700 1,800 Climbing Memphis Center
Thu 08:49:02 AM 34.9256 -94.0500 279° West 446 513 32,800 1,600 Climbing Memphis Center
Thu 08:50:02 AM 34.9422 -94.1900 278° West 441 507 33,900 1,300 Climbing Memphis Center
Thu 08:51:02 AM 34.9647 -94.3381 281° West 436 502 35,400 1,400 Climbing Memphis Center
Thu 08:52:02 AM 34.9831 -94.4833 279° West 436 502 36,700 1,212 Climbing Memphis Center
Thu 08:52:41 AM 34.9967 -94.5722 281° West 437 503 37,400 788 Climbing Fort Worth Center
Thu 08:53:41 AM 35.0144 -94.7189 278° West 447 514 38,000 300 Climbing Fort Worth Center
Thu 08:54:41 AM 35.0339 -94.8575 280° West 442 509 38,000  Level Fort Worth Center
Thu 08:55:41 AM 35.0536 -95.0042 279° West 442 509 38,000  Level Fort Worth Center
Thu 08:56:41 AM 35.0731 -95.1508 279° West 442 509 38,000  Level Fort Worth Center
Thu 08:57:41 AM 35.0903 -95.2975 278° West 447 514 38,000  Level Fort Worth Center
Thu 08:58:41 AM 35.1094 -95.4569 278° West 441 507 38,000  Level Fort Worth Center
Thu 08:59:41 AM 35.1264 -95.6061 278° West 441 507 38,000  Level Fort Worth Center
Thu 09:00:41 AM 35.1450 -95.7531 279° West 441 507 38,000  Level Fort Worth Center
Thu 09:01:41 AM 35.1614 -95.9000 278° West 441 507 38,000  Level Fort Worth Center
Thu 09:02:41 AM 35.1797 -96.0444 279° West 441 507 38,000  Level Fort Worth Center
Thu 09:03:41 AM 35.1958 -96.1942 278° West 441 507 38,000  Level Fort Worth Center
Thu 09:04:41 AM 35.2139 -96.3411 279° West 446 513 38,000  Level Fort Worth Center
Thu 09:05:41 AM 35.2319 -96.4908 278° West 446 513 38,000  Level Fort Worth Center
Thu 09:06:41 AM 35.2494 -96.6383 278° West 446 513 38,000  Level Fort Worth Center
Thu 09:07:41 AM 35.2650 -96.7856 277° West 446 513 38,000  Level Fort Worth Center
Thu 09:08:41 AM 35.2822 -96.9356 278° West 446 513 38,000  Level Fort Worth Center
Thu 09:09:41 AM 35.2972 -97.0803 277° West 446 513 38,000  Level Fort Worth Center
Thu 09:10:41 AM 35.3206 -97.2203 282° West 451 519 38,000  Level Fort Worth Center
Thu 09:11:41 AM 35.3375 -97.3703 278° West 451 519 38,000  Level Fort Worth Center
Thu 09:12:41 AM 35.3436 -97.5331 273° West 457 526 38,000  Level Fort Worth Center
Thu 09:13:41 AM 35.3558 -97.6808 276° West 465 535 38,000  Level Fort Worth Center
Thu 09:14:41 AM 35.3575 -97.8286 271° West 454 522 38,000  Level Fort Worth Center
Thu 09:15:41 AM 35.3592 -97.9786 271° West 449 517 38,000  Level Fort Worth Center
Thu 09:16:41 AM 35.3603 -98.1289 271° West 449 517 38,000  Level Fort Worth Center
Thu 09:17:41 AM 35.3614 -98.2792 271° West 443 510 38,000  Level Fort Worth Center
Thu 09:18:41 AM 35.3644 -98.4267 271° West 436 502 38,000  Level Fort Worth Center
Thu 09:19:41 AM 35.3653 -98.5872 270° West 430 495 38,000  Level Fort Worth Center
Thu 09:20:41 AM 35.3639 -98.7297 269° West 435 501 38,000  Level Fort Worth Center
Thu 09:21:41 AM 35.3619 -98.8900 269° West 449 517 38,000  Level Fort Worth Center
Thu 09:22:41 AM 35.3644 -99.0300 271° West 438 504 38,000  Level Fort Worth Center
Thu 09:23:41 AM 35.3667 -99.1778 271° West 438 504 38,000  Level Fort Worth Center
Thu 09:24:41 AM 35.3664 -99.3253 270° West 438 504 38,000  Level Fort Worth Center
Thu 09:25:41 AM 35.3661 -99.4781 270° West 438 504 38,000  Level Fort Worth Center
Thu 09:26:41 AM 35.3636 -99.6231 269° West 438 504 38,000  Level Fort Worth Center
Thu 09:27:56 AM 35.3667 -99.8044 271° West 435 501 38,000  Level Albuquerque Center
Thu 09:28:57 AM 35.3644 -99.9522 269° West 433 498 38,000  Level Albuquerque Center
Thu 09:29:58 AM 35.3642 -100.0983 270° West 429 494 38,000  Level Albuquerque Center
Thu 09:31:00 AM 35.3642 -100.2444 270° West 427 491 38,000  Level Albuquerque Center
Thu 09:32:01 AM 35.3633 -100.3897 270° West 427 491 38,000  Level Albuquerque Center
Thu 09:33:02 AM 35.3619 -100.5342 269° West 425 489 38,000  Level Albuquerque Center
Thu 09:34:03 AM 35.3597 -100.6917 269° West 426 490 38,000  Level Albuquerque Center
Thu 09:35:04 AM 35.3578 -100.8378 269° West 430 495 38,000  Level Albuquerque Center
Thu 09:36:05 AM 35.3556 -100.9842 269° West 432 497 38,000  Level Albuquerque Center
Thu 09:37:06 AM 35.3533 -101.1317 269° West 434 499 38,000  Level Albuquerque Center
Thu 09:38:07 AM 35.3511 -101.2778 269° West 432 497 38,000  Level Albuquerque Center
Thu 09:39:08 AM 35.3503 -101.4172 270° West 433 498 38,000  Level Albuquerque Center
Thu 09:40:09 AM 35.3475 -101.5622 269° West 427 491 38,000  Level Albuquerque Center
Thu 09:41:11 AM 35.3464 -101.7139 270° West 426 490 38,000  Level Albuquerque Center
Thu 09:42:12 AM 35.3439 -101.8836 269° West 423 487 38,000  Level Albuquerque Center
Thu 09:43:13 AM 35.3361 -102.0186 266° West 425 489 38,000  Level Albuquerque Center
Thu 09:44:14 AM 35.3328 -102.1636 268° West 427 491 38,000  Level Albuquerque Center
Thu 09:45:15 AM 35.3300 -102.3092 269° West 429 494 38,000  Level Albuquerque Center
Thu 09:46:17 AM 35.3253 -102.4550 268° West 430 495 38,000  Level Albuquerque Center
Thu 09:47:18 AM 35.3222 -102.6019 269° West 433 498 38,000  Level Albuquerque Center
Thu 09:48:19 AM 35.3183 -102.7678 268° West 433 498 38,000  Level Albuquerque Center
Thu 09:49:20 AM 35.3142 -102.9167 268° West 435 501 38,000  Level Albuquerque Center
Thu 09:50:22 AM 35.3092 -103.0664 268° West 435 501 38,000  Level Albuquerque Center
Thu 09:51:23 AM 35.3050 -103.2158 268° West 436 502 38,000  Level Albuquerque Center
Thu 09:52:24 AM 35.2992 -103.3636 267° West 433 498 38,000  Level Albuquerque Center
Thu 09:53:26 AM 35.2942 -103.5122 268° West 433 498 38,000  Level Albuquerque Center
Thu 09:54:27 AM 35.2892 -103.6603 268° West 432 497 38,000  Level Albuquerque Center
Thu 09:55:28 AM 35.2842 -103.8081 268° West 433 498 38,000  Level Albuquerque Center
Thu 09:56:30 AM 35.2789 -103.9567 268° West 436 502 38,000  Level Albuquerque Center
Thu 09:57:31 AM 35.2725 -104.1053 267° West 440 506 38,000  Level Albuquerque Center
Thu 09:58:33 AM 35.2658 -104.2842 267° West 440 506 38,000  Level Albuquerque Center
Thu 09:59:34 AM 35.2594 -104.4336 267° West 441 507 38,000  Level Albuquerque Center
Thu 10:00:36 AM 35.2528 -104.5833 267° West 441 507 38,000  Level Albuquerque Center
Thu 10:01:37 AM 35.2444 -104.7272 266° West 444 511 38,000  Level Albuquerque Center
Thu 10:02:39 AM 35.2381 -104.8781 267° West 441 507 38,000  Level Albuquerque Center
Thu 10:03:40 AM 35.2278 -105.0542 266° West 442 509 38,000  Level Albuquerque Center
Thu 10:04:42 AM 35.2136 -105.2047 263° West 442 509 38,000  Level Albuquerque Center
Thu 10:05:43 AM 35.1997 -105.3564 264° West 444 511 38,000  Level Albuquerque Center
Thu 10:06:45 AM 35.1856 -105.5064 263° West 442 509 38,000  Level Albuquerque Center
Thu 10:07:46 AM 35.1728 -105.6592 264° West 446 513 38,000  Level Albuquerque Center
Thu 10:08:48 AM 35.1581 -105.8106 263° West 446 513 38,000  Level Albuquerque Center
Thu 10:09:49 AM 35.1422 -105.9631 263° West 448 516 38,000  Level Albuquerque Center
Thu 10:10:51 AM 35.1286 -106.1142 264° West 445 512 38,000  Level Albuquerque Center
Thu 10:11:52 AM 35.1158 -106.2547 264° West 444 511 38,000  Level Albuquerque Center
Thu 10:12:54 AM 35.1008 -106.4031 263° West 441 507 38,000  Level Albuquerque Center
Thu 10:13:55 AM 35.0817 -106.5903 263° West 447 514 38,000  Level Albuquerque Center
Thu 10:14:57 AM 35.0656 -106.7347 262° West 450 518 38,000  Level Albuquerque Center
Thu 10:15:59 AM 35.0533 -106.8764 264° West 442 509 38,000  Level Albuquerque Center
Thu 10:17:00 AM 35.0369 -107.0406 263° West 436 502 38,000  Level Albuquerque Center
Thu 10:18:02 AM 35.0200 -107.1939 262° West 445 512 38,000  Level Albuquerque Center
Thu 10:19:04 AM 35.0031 -107.3456 262° West 452 520 38,000  Level Albuquerque Center
Thu 10:20:05 AM 34.9867 -107.4936 262° West 445 512 38,000  Level Albuquerque Center
Thu 10:21:07 AM 34.9708 -107.6433 263° West 445 512 38,000  Level Albuquerque Center
Thu 10:22:09 AM 34.9550 -107.7922 263° West 444 511 38,000  Level Albuquerque Center
Thu 10:23:10 AM 34.9372 -107.9492 262° West 443 510 38,000  Level Albuquerque Center
Thu 10:24:12 AM 34.9194 -108.1150 263° West 442 509 38,000  Level Albuquerque Center
Thu 10:25:14 AM 34.9022 -108.2581 262° West 443 510 38,000  Level Albuquerque Center
Thu 10:26:16 AM 34.8833 -108.4264 262° West 446 513 38,000  Level Albuquerque Center
Thu 10:27:17 AM 34.8669 -108.5697 262° West 445 512 38,000 -488 Level Albuquerque Center
Thu 10:28:19 AM 34.8500 -108.7144 262° West 448 516 37,000 -968 Descending Albuquerque Center
Thu 10:29:21 AM 34.8297 -108.8839 262° West 450 518 36,000 -484 Descending Albuquerque Center
Thu 10:30:23 AM 34.8122 -109.0308 262° West 454 522 36,000  Level Albuquerque Center
Thu 10:31:25 AM 34.7911 -109.1981 261° West 451 519 36,000  Level Albuquerque Center
Thu 10:32:27 AM 34.7731 -109.3444 262° West 452 520 36,000  Level Albuquerque Center
Thu 10:33:28 AM 34.7558 -109.4914 262° West 456 525 36,000  Level Albuquerque Center
Thu 10:34:30 AM 34.7344 -109.6603 261° West 454 522 36,000  Level Albuquerque Center
Thu 10:35:32 AM 34.7172 -109.8064 262° West 454 522 36,000  Level Albuquerque Center
Thu 10:36:34 AM 34.6697 -109.9664 250° West 443 510 36,000  Level Albuquerque Center
Thu 10:37:36 AM 34.6219 -110.1000 247° West 447 514 36,000 -968 Level Albuquerque Center
Thu 10:38:38 AM 34.5647 -110.2503 245° Southwest 442 509 34,000 -2,129 Descending Albuquerque Center
Thu 10:39:40 AM 34.5164 -110.3811 246° West 442 509 31,600 -2,274 Descending Albuquerque Center
Thu 10:40:42 AM 34.4639 -110.5200 245° Southwest 433 498 29,300 -2,129 Descending Albuquerque Center
Thu 10:41:44 AM 34.4164 -110.6450 245° Southwest 415 478 27,200 -1,984 Descending Albuquerque Center
Thu 10:42:46 AM 34.3706 -110.7656 245° Southwest 399 459 25,200 -1,951 Descending Albuquerque Center
Thu 10:43:47 AM 34.3067 -110.8642 232° Southwest 370 426 23,200 -1,854 Descending Albuquerque Center
Thu 10:44:49 AM 34.2344 -110.9528 225° Southwest 370 426 21,400 -1,935 Descending Albuquerque Center
Thu 10:45:51 AM 34.1528 -111.0575 227° Southwest 360 414 19,200 -1,935 Descending Albuquerque Center
Thu 10:46:53 AM 34.0864 -111.1425 227° Southwest 355 409 17,400 -1,742 Descending Albuquerque Center
Thu 10:47:55 AM 34.0217 -111.2258 227° Southwest 347 399 15,600 -1,742 Descending Albuquerque Center
Thu 10:48:57 AM 33.9592 -111.3050 226° Southwest 331 381 13,800 -1,597 Descending Albuquerque Center
Thu 10:49:59 AM 33.8986 -111.3828 227° Southwest 319 367 12,300 -1,306 Descending Albuquerque Center
Thu 10:51:01 AM 33.8350 -111.4444 219° Southwest 290 334 11,100 -1,016 Descending Albuquerque Center
Thu 10:52:03 AM 33.7697 -111.5011 216° Southwest 288 331 10,200 -1,258 Descending Albuquerque Center
Thu 10:53:05 AM 33.6942 -111.5661 216° Southwest 276 318 8,500 -1,065 Descending Albuquerque Center
Thu 10:54:07 AM 33.6239 -111.6042 204° Southwest 275 316 8,000 -532 Descending Albuquerque Center
Thu 10:55:09 AM 33.5536 -111.6408 204° Southwest 275 316 7,400 -532 Descending Albuquerque Center
Thu 10:56:11 AM 33.4828 -111.6767 203° Southwest 275 316 6,900 -629 Descending Albuquerque Center
Thu 10:57:13 AM 33.4356 -111.7211 218° Southwest 237 273 6,100 -968 Descending Albuquerque Center
Thu 10:58:15 AM 33.4292 -111.7975 264° West 234 269 4,900 -1,500 Descending Albuquerque Center
Thu 10:59:17 AM 33.4333 -111.8833 273° West 222 255 3,000 -1,377 Descending Phoenix TRACON
Thu 11:00:17 AM 33.4333 -111.9500 270° West 169 194 2,100 -900 Descending Phoenix TRACON
Thu 11:03:00 AM 33.4333 -112.0000 280° West  Level FlightAware Approximate

Login

Don't have an account? Register now (free) for customized features, flight alerts, and more!